sensor_id;sensor_type;location;lat;lon;timestamp;pressure;altitude;pressure_sealevel;temperature;humidity
57374;BME280;43964;53.890;25.340;2023-02-12T00:01:13;1031.9;;;0.7;65.8
57374;BME280;43964;53.890;25.340;2023-02-12T00:06:49;1032;;;0.7;65.8
57374;BME280;43964;53.890;25.340;2023-02-12T00:11:39;1032.2;;;0.6;65.9
57374;BME280;43964;53.890;25.340;2023-02-12T00:16:49;1032.3;;;0.6;66
57374;BME280;43964;53.890;25.340;2023-02-12T00:21:13;1032.4;;;0.5;66
57374;BME280;43964;53.890;25.340;2023-02-12T00:26:49;1032.6;;;0.5;66
57374;BME280;43964;53.890;25.340;2023-02-12T00:31:47;1032.7;;;0.5;66
57374;BME280;43964;53.890;25.340;2023-02-12T00:36:59;1032.8;;;0.4;66
57374;BME280;43964;53.890;25.340;2023-02-12T00:41:59;1032.9;;;0.3;66
57374;BME280;43964;53.890;25.340;2023-02-12T00:46:49;1032.9;;;0.3;66
57374;BME280;43964;53.890;25.340;2023-02-12T00:52:03;1033;;;0.3;66
57374;BME280;43964;53.890;25.340;2023-02-12T00:56:27;1033;;;0.3;66.1
57374;BME280;43964;53.890;25.340;2023-02-12T01:01:47;1033;;;0.3;66.1
57374;BME280;43964;53.890;25.340;2023-02-12T01:06:23;1033.1;;;0.2;66.1
57374;BME280;43964;53.890;25.340;2023-02-12T01:11:51;1033.2;;;0.2;66.2
57374;BME280;43964;53.890;25.340;2023-02-12T01:16:39;1033.3;;;0.2;66.2
57374;BME280;43964;53.890;25.340;2023-02-12T01:21:45;1033.4;;;0.3;66.2
57374;BME280;43964;53.890;25.340;2023-02-12T01:26:37;1033.5;;;0.3;66.2
57374;BME280;43964;53.890;25.340;2023-02-12T01:31:59;1033.6;;;0.2;66.2
57374;BME280;43964;53.890;25.340;2023-02-12T01:36:47;1033.7;;;0.2;66
57374;BME280;43964;53.890;25.340;2023-02-12T01:41:49;1033.8;;;0.1;66
57374;BME280;43964;53.890;25.340;2023-02-12T01:46:23;1033.9;;;0.1;66
57374;BME280;43964;53.890;25.340;2023-02-12T01:51:39;1034;;;0;66
57374;BME280;43964;53.890;25.340;2023-02-12T01:56:39;1034.1;;;0;66
57374;BME280;43964;53.890;25.340;2023-02-12T02:01:14;1034.2;;;0;66.1
57374;BME280;43964;53.890;25.340;2023-02-12T02:06:23;1034.3;;;-0.1;66.1
57374;BME280;43964;53.890;25.340;2023-02-12T02:11:37;1034.5;;;-0.1;66.1
57374;BME280;43964;53.890;25.340;2023-02-12T02:17:05;1034.5;;;-0.4;66.1
57374;BME280;43964;53.890;25.340;2023-02-12T02:21:33;1034.6;;;-0.5;66.4
57374;BME280;43964;53.890;25.340;2023-02-12T02:27:00;1034.8;;;-0.5;66.5
57374;BME280;43964;53.890;25.340;2023-02-12T02:31:13;1034.8;;;-0.5;66.5
57374;BME280;43964;53.890;25.340;2023-02-12T02:36:24;1034.8;;;-0.5;66.5
57374;BME280;43964;53.890;25.340;2023-02-12T02:41:24;1034.8;;;-0.5;66.8
57374;BME280;43964;53.890;25.340;2023-02-12T02:46:25;1035;;;-0.4;66.6
57374;BME280;43964;53.890;25.340;2023-02-12T02:52:02;1035;;;-0.5;66.5
57374;BME280;43964;53.890;25.340;2023-02-12T02:57:04;1035.1;;;-0.5;66.7
57374;BME280;43964;53.890;25.340;2023-02-12T03:01:36;1035;;;-0.4;66.8
57374;BME280;43964;53.890;25.340;2023-02-12T03:07:02;1035.1;;;-0.3;66.8
57374;BME280;43964;53.890;25.340;2023-02-12T03:12:04;1035.1;;;-0.3;66.7
57374;BME280;43964;53.890;25.340;2023-02-12T03:16:24;1035.1;;;-0.3;66.5
57374;BME280;43964;53.890;25.340;2023-02-12T03:21:53;1035.3;;;-0.5;66.7
57374;BME280;43964;53.890;25.340;2023-02-12T03:26:42;1035.3;;;-0.5;66.7
57374;BME280;43964;53.890;25.340;2023-02-12T03:31:16;1035.4;;;-0.5;66.8
57374;BME280;43964;53.890;25.340;2023-02-12T03:36:41;1035.5;;;-0.4;66.8
57374;BME280;43964;53.890;25.340;2023-02-12T03:41:13;1035.6;;;-0.5;66.7
57374;BME280;43964;53.890;25.340;2023-02-12T03:47:01;1035.7;;;-0.5;66.6
57374;BME280;43964;53.890;25.340;2023-02-12T03:52:03;1035.7;;;-0.5;66.7
57374;BME280;43964;53.890;25.340;2023-02-12T03:56:24;1035.7;;;-0.6;66.7
57374;BME280;43964;53.890;25.340;2023-02-12T04:02:01;1035.8;;;-0.6;66.8
57374;BME280;43964;53.890;25.340;2023-02-12T04:07:01;1035.9;;;-0.6;66.8
57374;BME280;43964;53.890;25.340;2023-02-12T04:11:16;1036;;;-0.6;66.8
57374;BME280;43964;53.890;25.340;2023-02-12T04:16:16;1036.1;;;-0.9;66.6
57374;BME280;43964;53.890;25.340;2023-02-12T04:22:08;1036.1;;;-1;66.8
57374;BME280;43964;53.890;25.340;2023-02-12T04:26:41;1036.3;;;-1;66.7
57374;BME280;43964;53.890;25.340;2023-02-12T04:31:37;1036.4;;;-1;66.9
57374;BME280;43964;53.890;25.340;2023-02-12T04:36:28;1036.3;;;-1;66.8
57374;BME280;43964;53.890;25.340;2023-02-12T04:41:47;1036.4;;;-1.1;66.7
57374;BME280;43964;53.890;25.340;2023-02-12T04:46:49;1036.4;;;-1.1;66.9
57374;BME280;43964;53.890;25.340;2023-02-12T04:51:35;1036.6;;;-1;67.3
57374;BME280;43964;53.890;25.340;2023-02-12T04:56:37;1036.7;;;-0.8;67.1
57374;BME280;43964;53.890;25.340;2023-02-12T05:01:27;1036.9;;;-0.6;67.2
57374;BME280;43964;53.890;25.340;2023-02-12T05:06:51;1036.8;;;-0.3;67
57374;BME280;43964;53.890;25.340;2023-02-12T05:11:13;1036.9;;;-0.1;66.8
57374;BME280;43964;53.890;25.340;2023-02-12T05:16:49;1036.9;;;-0.1;66.7
57374;BME280;43964;53.890;25.340;2023-02-12T05:21:27;1036.9;;;-0.1;66.7
57374;BME280;43964;53.890;25.340;2023-02-12T05:26:13;1037;;;0;66.6
57374;BME280;43964;53.890;25.340;2023-02-12T05:31:47;1037.1;;;-0.1;66.5
57374;BME280;43964;53.890;25.340;2023-02-12T05:36:47;1037.2;;;-0.1;66.5
57374;BME280;43964;53.890;25.340;2023-02-12T05:42:03;1037.4;;;-0.2;66.7
57374;BME280;43964;53.890;25.340;2023-02-12T05:46:13;1037.5;;;-0.1;66.7
57374;BME280;43964;53.890;25.340;2023-02-12T05:52:01;1037.7;;;-0.1;66.3
57374;BME280;43964;53.890;25.340;2023-02-12T05:56:13;1037.8;;;-0.2;66.6
57374;BME280;43964;53.890;25.340;2023-02-12T06:01:45;1037.9;;;-0.1;66.7
57374;BME280;43964;53.890;25.340;2023-02-12T06:07:01;1038.1;;;0.1;66.5
57374;BME280;43964;53.890;25.340;2023-02-12T06:11:49;1038.2;;;0.2;66.5
57374;BME280;43964;53.890;25.340;2023-02-12T06:16:15;1038.2;;;0.3;66.5
57374;BME280;43964;53.890;25.340;2023-02-12T06:21:39;1038.2;;;0.5;66.3
57374;BME280;43964;53.890;25.340;2023-02-12T06:26:47;1038.1;;;0.5;66.3
57374;BME280;43964;53.890;25.340;2023-02-12T06:31:59;1038.2;;;0.6;66.2
57374;BME280;43964;53.890;25.340;2023-02-12T06:37:01;1038.1;;;0.8;65.9
57374;BME280;43964;53.890;25.340;2023-02-12T06:41:47;1038.3;;;0.8;65.7
57374;BME280;43964;53.890;25.340;2023-02-12T06:47:01;1038.3;;;0.7;65.8
57374;BME280;43964;53.890;25.340;2023-02-12T06:51:37;1038.3;;;0.8;65.8
57374;BME280;43964;53.890;25.340;2023-02-12T06:56:49;1038.4;;;0.8;65.8
57374;BME280;43964;53.890;25.340;2023-02-12T07:01:23;1038.4;;;0.8;65.5
57374;BME280;43964;53.890;25.340;2023-02-12T07:06:49;1038.5;;;1.1;65.5
57374;BME280;43964;53.890;25.340;2023-02-12T07:11:13;1038.6;;;1.3;65.3
57374;BME280;43964;53.890;25.340;2023-02-12T07:17:01;1038.6;;;1.2;64.9
57374;BME280;43964;53.890;25.340;2023-02-12T07:21:37;1038.6;;;1.2;64.9
57374;BME280;43964;53.890;25.340;2023-02-12T07:27:01;1038.7;;;1.5;64.5
57374;BME280;43964;53.890;25.340;2023-02-12T07:31:59;1038.8;;;1.6;64.1
57374;BME280;43964;53.890;25.340;2023-02-12T07:36:47;1038.9;;;2;63.8
57374;BME280;43964;53.890;25.340;2023-02-12T07:41:59;1038.9;;;2.3;63.7
57374;BME280;43964;53.890;25.340;2023-02-12T07:46:27;1039;;;2.4;63.7
57374;BME280;43964;53.890;25.340;2023-02-12T07:51:47;1039;;;2.4;63.7
57374;BME280;43964;53.890;25.340;2023-02-12T08:01:49;1038.9;;;2.8;62.6
57374;BME280;43964;53.890;25.340;2023-02-12T08:06:40;1038.8;;;2.7;62.3
57374;BME280;43964;53.890;25.340;2023-02-12T08:12:01;1038.8;;;2.5;62.1
57374;BME280;43964;53.890;25.340;2023-02-12T08:16:36;1038.9;;;2.7;62.3
57374;BME280;43964;53.890;25.340;2023-02-12T08:22:03;1038.9;;;3;61.9
57374;BME280;43964;53.890;25.340;2023-02-12T08:26:39;1039;;;3.5;61.6
57374;BME280;43964;53.890;25.340;2023-02-12T08:31:14;1039;;;4;61.2
57374;BME280;43964;53.890;25.340;2023-02-12T08:36:26;1039;;;4.2;61
57374;BME280;43964;53.890;25.340;2023-02-12T08:41:14;1039.1;;;4.4;60.8
57374;BME280;43964;53.890;25.340;2023-02-12T08:46:50;1039.2;;;4.5;60.4
57374;BME280;43964;53.890;25.340;2023-02-12T08:51:28;1039.4;;;4.8;59.8
57374;BME280;43964;53.890;25.340;2023-02-12T08:56:14;1039.5;;;4.8;59.6
57374;BME280;43964;53.890;25.340;2023-02-12T09:01:39;1039.6;;;5;58.8
57374;BME280;43964;53.890;25.340;2023-02-12T09:07:03;1039.6;;;5.1;58.5
57374;BME280;43964;53.890;25.340;2023-02-12T09:11:39;1039.6;;;5.3;59.1
57374;BME280;43964;53.890;25.340;2023-02-12T09:16:49;1039.7;;;5.4;58.5
57374;BME280;43964;53.890;25.340;2023-02-12T09:21:39;1039.7;;;5.5;58.2
57374;BME280;43964;53.890;25.340;2023-02-12T09:26:39;1039.7;;;5.5;57.6
57374;BME280;43964;53.890;25.340;2023-02-12T09:31:39;1039.6;;;5.5;57.3
57374;BME280;43964;53.890;25.340;2023-02-12T09:36:13;1039.5;;;5.5;57.3
57374;BME280;43964;53.890;25.340;2023-02-12T09:42:09;1039.5;;;5.7;56.6
57374;BME280;43964;53.890;25.340;2023-02-12T09:47:07;1039.6;;;5.8;56.7
57374;BME280;43964;53.890;25.340;2023-02-12T09:51:50;1039.6;;;5.9;56.7
57374;BME280;43964;53.890;25.340;2023-02-12T09:57:05;1039.6;;;5.9;56.8
57374;BME280;43964;53.890;25.340;2023-02-12T10:02:05;1039.6;;;6;56.6
57374;BME280;43964;53.890;25.340;2023-02-12T10:06:40;1039.5;;;6.3;56.3
57374;BME280;43964;53.890;25.340;2023-02-12T10:11:32;1039.5;;;6.3;55.9
57374;BME280;43964;53.890;25.340;2023-02-12T10:17:05;1039.6;;;6.4;55.8
57374;BME280;43964;53.890;25.340;2023-02-12T10:21:15;1039.5;;;6.5;55.7
57374;BME280;43964;53.890;25.340;2023-02-12T10:26:16;1039.4;;;6.7;55.5
57374;BME280;43964;53.890;25.340;2023-02-12T10:31:38;1039.4;;;6.7;55.3
57374;BME280;43964;53.890;25.340;2023-02-12T10:36:51;1039.4;;;6.7;55.3
57374;BME280;43964;53.890;25.340;2023-02-12T10:41:54;1039.4;;;6.6;54.4
57374;BME280;43964;53.890;25.340;2023-02-12T10:46:37;1039.4;;;6.4;53.9
57374;BME280;43964;53.890;25.340;2023-02-12T10:52:08;1039.6;;;6.2;53.8
57374;BME280;43964;53.890;25.340;2023-02-12T10:56:27;1039.7;;;6;54.2
57374;BME280;43964;53.890;25.340;2023-02-12T11:01:51;1039.7;;;5.8;54.4
57374;BME280;43964;53.890;25.340;2023-02-12T11:06:28;1039.7;;;5.8;54.2
57374;BME280;43964;53.890;25.340;2023-02-12T11:11:51;1039.7;;;5.8;54
57374;BME280;43964;53.890;25.340;2023-02-12T11:16:27;1039.5;;;5.8;53.9
57374;BME280;43964;53.890;25.340;2023-02-12T11:21:51;1039.4;;;5.9;53.5
57374;BME280;43964;53.890;25.340;2023-02-12T11:26:39;1039.4;;;6.1;53.3
57374;BME280;43964;53.890;25.340;2023-02-12T11:31:58;1039.4;;;6.1;53.4
57374;BME280;43964;53.890;25.340;2023-02-12T11:37:06;1039.3;;;6.4;53.2
57374;BME280;43964;53.890;25.340;2023-02-12T11:41:18;1039.4;;;6.4;52.5
57374;BME280;43964;53.890;25.340;2023-02-12T11:47:03;1039.4;;;6.5;52.1
57374;BME280;43964;53.890;25.340;2023-02-12T11:52:03;1039.3;;;6.5;51.9
57374;BME280;43964;53.890;25.340;2023-02-12T11:56:51;1039.3;;;6.6;51.9
57374;BME280;43964;53.890;25.340;2023-02-12T12:01:14;1039.3;;;6.7;52.1
57374;BME280;43964;53.890;25.340;2023-02-12T12:06:39;1039.3;;;6.6;52.3
57374;BME280;43964;53.890;25.340;2023-02-12T12:11:25;1039.3;;;6.4;52.3
57374;BME280;43964;53.890;25.340;2023-02-12T12:16:40;1039.3;;;6.3;52.3
57374;BME280;43964;53.890;25.340;2023-02-12T12:21:15;1039.2;;;6.2;51.9
57374;BME280;43964;53.890;25.340;2023-02-12T12:26:52;1039.3;;;6.1;52
57374;BME280;43964;53.890;25.340;2023-02-12T12:32:03;1039.3;;;5.9;51.9
57374;BME280;43964;53.890;25.340;2023-02-12T12:36:42;1039.3;;;5.8;52.2
57374;BME280;43964;53.890;25.340;2023-02-12T12:42:11;1039.3;;;5.7;52
57374;BME280;43964;53.890;25.340;2023-02-12T12:46:30;1039.3;;;5.6;52.1
57374;BME280;43964;53.890;25.340;2023-02-12T12:51:42;1039.3;;;5.6;51.8
57374;BME280;43964;53.890;25.340;2023-02-12T12:56:29;1039.2;;;5.7;51.6
57374;BME280;43964;53.890;25.340;2023-02-12T13:01:55;1039.1;;;5.9;51.9
57374;BME280;43964;53.890;25.340;2023-02-12T13:06:23;1039;;;5.9;51.5
57374;BME280;43964;53.890;25.340;2023-02-12T13:11:50;1039;;;6.1;51.4
57374;BME280;43964;53.890;25.340;2023-02-12T13:16:39;1038.9;;;6.1;51.1
57374;BME280;43964;53.890;25.340;2023-02-12T13:22:04;1038.9;;;6.1;51.5
57374;BME280;43964;53.890;25.340;2023-02-12T13:27:05;1038.8;;;5.9;51.1
57374;BME280;43964;53.890;25.340;2023-02-12T13:31:48;1038.8;;;5.8;51.3
57374;BME280;43964;53.890;25.340;2023-02-12T13:37:03;1038.9;;;5.9;51.3
57374;BME280;43964;53.890;25.340;2023-02-12T13:41:39;1039;;;6;51.2
57374;BME280;43964;53.890;25.340;2023-02-12T13:47:06;1039;;;6;51.1
57374;BME280;43964;53.890;25.340;2023-02-12T13:51:40;1039;;;5.8;51.1
57374;BME280;43964;53.890;25.340;2023-02-12T13:56:51;1039;;;5.6;51
57374;BME280;43964;53.890;25.340;2023-02-12T14:01:35;1038.8;;;5.4;51.2
57374;BME280;43964;53.890;25.340;2023-02-12T14:07:06;1038.8;;;5.3;51.3
57374;BME280;43964;53.890;25.340;2023-02-12T14:11:45;1038.8;;;5.2;51.2
57374;BME280;43964;53.890;25.340;2023-02-12T14:21:49;1038.9;;;4.9;51.5
57374;BME280;43964;53.890;25.340;2023-02-12T14:26:13;1039;;;4.8;51.6
57374;BME280;43964;53.890;25.340;2023-02-12T14:31:39;1038.9;;;4.8;51.8
57374;BME280;43964;53.890;25.340;2023-02-12T14:36:14;1038.9;;;4.8;51.8
57374;BME280;43964;53.890;25.340;2023-02-12T14:41:51;1039;;;4.7;51.8
57374;BME280;43964;53.890;25.340;2023-02-12T14:46:45;1039;;;4.7;51.9
57374;BME280;43964;53.890;25.340;2023-02-12T14:51:40;1039;;;4.7;51.8
57374;BME280;43964;53.890;25.340;2023-02-12T14:56:25;1039;;;4.7;51.9
57374;BME280;43964;53.890;25.340;2023-02-12T15:02:05;1039;;;4.6;52
57374;BME280;43964;53.890;25.340;2023-02-12T15:06:14;1038.9;;;4.6;52.1
57374;BME280;43964;53.890;25.340;2023-02-12T15:11:50;1038.9;;;4.5;52.2
57374;BME280;43964;53.890;25.340;2023-02-12T15:16:14;1038.8;;;4.2;52.3
57374;BME280;43964;53.890;25.340;2023-02-12T15:21:27;1038.8;;;4;52.5
57374;BME280;43964;53.890;25.340;2023-02-12T15:26:39;1038.8;;;3.9;52.7
57374;BME280;43964;53.890;25.340;2023-02-12T15:31:27;1038.9;;;3.7;52.8
57374;BME280;43964;53.890;25.340;2023-02-12T15:37:01;1038.9;;;3.5;53
57374;BME280;43964;53.890;25.340;2023-02-12T15:42:03;1038.9;;;3.4;53.1
57374;BME280;43964;53.890;25.340;2023-02-12T15:46:33;1038.8;;;3;53.3
57374;BME280;43964;53.890;25.340;2023-02-12T15:52:06;1039;;;2.8;53.5
57374;BME280;43964;53.890;25.340;2023-02-12T15:57:08;1039;;;2.7;54.1
57374;BME280;43964;53.890;25.340;2023-02-12T16:01:41;1038.9;;;2.6;54.2
57374;BME280;43964;53.890;25.340;2023-02-12T16:06:49;1038.9;;;2.5;54.6
57374;BME280;43964;53.890;25.340;2023-02-12T16:11:39;1038.9;;;2.5;54.5
57374;BME280;43964;53.890;25.340;2023-02-12T16:16:26;1039;;;2.3;54.7
57374;BME280;43964;53.890;25.340;2023-02-12T16:21:14;1039;;;2.2;55.1
57374;BME280;43964;53.890;25.340;2023-02-12T16:26:15;1038.9;;;2.2;55.5
57374;BME280;43964;53.890;25.340;2023-02-12T16:32:03;1038.9;;;2.2;55.7
57374;BME280;43964;53.890;25.340;2023-02-12T16:37:24;1038.9;;;2.3;55.8
57374;BME280;43964;53.890;25.340;2023-02-12T16:41:27;1038.9;;;2.3;55.7
57374;BME280;43964;53.890;25.340;2023-02-12T16:47:05;1039;;;2.4;55.5
57374;BME280;43964;53.890;25.340;2023-02-12T16:52:36;1038.9;;;2.5;55.6
57374;BME280;43964;53.890;25.340;2023-02-12T16:56:14;1038.9;;;2.6;55.9
57374;BME280;43964;53.890;25.340;2023-02-12T17:01:15;1038.9;;;2.6;56.4
57374;BME280;43964;53.890;25.340;2023-02-12T17:07:01;1038.9;;;2.8;56.4
57374;BME280;43964;53.890;25.340;2023-02-12T17:11:47;1038.9;;;2.8;56.1
57374;BME280;43964;53.890;25.340;2023-02-12T17:16:39;1038.8;;;2.7;55.8
57374;BME280;43964;53.890;25.340;2023-02-12T17:21:22;1038.7;;;2.6;55.7
57374;BME280;43964;53.890;25.340;2023-02-12T17:26:49;1038.6;;;2.6;55.9
57374;BME280;43964;53.890;25.340;2023-02-12T17:31:37;1038.5;;;2.6;56.1
57374;BME280;43964;53.890;25.340;2023-02-12T17:36:13;1038.4;;;2.6;56
57374;BME280;43964;53.890;25.340;2023-02-12T17:42:01;1038.5;;;2.6;56.1
57374;BME280;43964;53.890;25.340;2023-02-12T17:46:37;1038.4;;;2.7;56.2
57374;BME280;43964;53.890;25.340;2023-02-12T17:51:51;1038.2;;;2.7;56.3
57374;BME280;43964;53.890;25.340;2023-02-12T17:56:14;1038.2;;;2.8;56.3
57374;BME280;43964;53.890;25.340;2023-02-12T18:01:51;1038.2;;;2.7;56.3
57374;BME280;43964;53.890;25.340;2023-02-12T18:06:13;1038.1;;;2.7;56.4
57374;BME280;43964;53.890;25.340;2023-02-12T18:11:39;1038.1;;;2.8;56.4
57374;BME280;43964;53.890;25.340;2023-02-12T18:16:49;1038.1;;;2.8;56.6
57374;BME280;43964;53.890;25.340;2023-02-12T18:21:51;1038;;;2.7;56.7
57374;BME280;43964;53.890;25.340;2023-02-12T18:27:05;1037.9;;;2.6;56.9
57374;BME280;43964;53.890;25.340;2023-02-12T18:31:37;1037.9;;;2.7;57.2
57374;BME280;43964;53.890;25.340;2023-02-12T18:37:06;1037.8;;;2.8;56.8
57374;BME280;43964;53.890;25.340;2023-02-12T18:41:28;1037.8;;;2.9;56.8
57374;BME280;43964;53.890;25.340;2023-02-12T18:46:49;1037.8;;;2.9;56.8
57374;BME280;43964;53.890;25.340;2023-02-12T18:51:14;1037.8;;;2.9;56.8
57374;BME280;43964;53.890;25.340;2023-02-12T18:56:51;1037.8;;;2.8;56.8
57374;BME280;43964;53.890;25.340;2023-02-12T19:01:34;1037.8;;;2.8;56.7
57374;BME280;43964;53.890;25.340;2023-02-12T19:07:03;1037.9;;;2.8;56.6
57374;BME280;43964;53.890;25.340;2023-02-12T19:11:13;1037.8;;;2.8;56.7
57374;BME280;43964;53.890;25.340;2023-02-12T19:17:05;1037.7;;;2.7;56.7
57374;BME280;43964;53.890;25.340;2023-02-12T19:22:05;1037.5;;;2.6;57
57374;BME280;43964;53.890;25.340;2023-02-12T19:26:49;1037.5;;;2.4;57
57374;BME280;43964;53.890;25.340;2023-02-12T19:32:03;1037.5;;;2.1;57.2
57374;BME280;43964;53.890;25.340;2023-02-12T19:36:26;1037.5;;;2.1;57.6
57374;BME280;43964;53.890;25.340;2023-02-12T19:41:49;1037.5;;;2.1;57.4
57374;BME280;43964;53.890;25.340;2023-02-12T19:46:39;1037.5;;;2.1;57.5
57374;BME280;43964;53.890;25.340;2023-02-12T19:51:51;1037.4;;;2.1;57.6
57374;BME280;43964;53.890;25.340;2023-02-12T19:56:27;1037.3;;;2.1;57.6
57374;BME280;43964;53.890;25.340;2023-02-12T20:01:49;1037.3;;;2;57.9
57374;BME280;43964;53.890;25.340;2023-02-12T20:06:51;1037.3;;;2;57.9
57374;BME280;43964;53.890;25.340;2023-02-12T20:12:05;1037.2;;;2;57.8
57374;BME280;43964;53.890;25.340;2023-02-12T20:17:05;1037.2;;;2;57.8
57374;BME280;43964;53.890;25.340;2023-02-12T20:21:51;1037.1;;;2;57.9
57374;BME280;43964;53.890;25.340;2023-02-12T20:27:01;1037;;;1.9;58.1
57374;BME280;43964;53.890;25.340;2023-02-12T20:31:17;1037;;;1.9;58.2
57374;BME280;43964;53.890;25.340;2023-02-12T20:36:40;1036.9;;;1.9;58.1
57374;BME280;43964;53.890;25.340;2023-02-12T20:41:13;1036.9;;;1.9;58.1
57374;BME280;43964;53.890;25.340;2023-02-12T20:46:53;1036.8;;;2;57.8
57374;BME280;43964;53.890;25.340;2023-02-12T20:51:39;1036.7;;;2.2;57.8
57374;BME280;43964;53.890;25.340;2023-02-12T20:57:05;1036.6;;;2.2;58
57374;BME280;43964;53.890;25.340;2023-02-12T21:01:14;1036.5;;;2.3;58.1
57374;BME280;43964;53.890;25.340;2023-02-12T21:06:47;1036.4;;;2.4;58.1
57374;BME280;43964;53.890;25.340;2023-02-12T21:11:49;1036.3;;;2.4;58.1
57374;BME280;43964;53.890;25.340;2023-02-12T21:16:14;1036.3;;;2.4;58.2
57374;BME280;43964;53.890;25.340;2023-02-12T21:21:40;1036.3;;;2.3;58.2
57374;BME280;43964;53.890;25.340;2023-02-12T21:26:27;1036.3;;;2.1;58.3
57374;BME280;43964;53.890;25.340;2023-02-12T21:31:48;1036.3;;;2;58.5
57374;BME280;43964;53.890;25.340;2023-02-12T21:36:14;1036.2;;;1.9;58.7
57374;BME280;43964;53.890;25.340;2023-02-12T21:41:40;1036.2;;;1.8;58.9
57374;BME280;43964;53.890;25.340;2023-02-12T21:46:39;1036.2;;;1.8;59
57374;BME280;43964;53.890;25.340;2023-02-12T21:52:05;1036.1;;;1.9;59.1
57374;BME280;43964;53.890;25.340;2023-02-12T21:56:39;1036.1;;;1.8;59.3
57374;BME280;43964;53.890;25.340;2023-02-12T22:01:50;1036.1;;;1.8;59.4
57374;BME280;43964;53.890;25.340;2023-02-12T22:06:39;1036;;;1.8;59.5
57374;BME280;43964;53.890;25.340;2023-02-12T22:11:13;1036;;;1.9;59.4
57374;BME280;43964;53.890;25.340;2023-02-12T22:16:39;1035.9;;;2;59.4
57374;BME280;43964;53.890;25.340;2023-02-12T22:21:27;1035.9;;;2.1;59.4
57374;BME280;43964;53.890;25.340;2023-02-12T22:27:05;1035.9;;;2.2;59.4
57374;BME280;43964;53.890;25.340;2023-02-12T22:32:01;1035.8;;;2.3;59.6
57374;BME280;43964;53.890;25.340;2023-02-12T22:36:47;1035.8;;;2.4;59.7
57374;BME280;43964;53.890;25.340;2023-02-12T22:42:03;1035.8;;;2.4;59.9
57374;BME280;43964;53.890;25.340;2023-02-12T22:47:03;1035.7;;;2.5;60.1
57374;BME280;43964;53.890;25.340;2023-02-12T22:51:41;1035.7;;;2.6;60.1
57374;BME280;43964;53.890;25.340;2023-02-12T22:56:39;1035.7;;;2.7;60.2
57374;BME280;43964;53.890;25.340;2023-02-12T23:01:53;1035.6;;;2.7;60.2
57374;BME280;43964;53.890;25.340;2023-02-12T23:06:39;1035.5;;;2.8;60.2
57374;BME280;43964;53.890;25.340;2023-02-12T23:11:41;1035.5;;;2.8;60.2
57374;BME280;43964;53.890;25.340;2023-02-12T23:16:27;1035.5;;;2.9;60.3
57374;BME280;43964;53.890;25.340;2023-02-12T23:21:51;1035.5;;;2.9;60.3
57374;BME280;43964;53.890;25.340;2023-02-12T23:26:51;1035.4;;;3;60.5
57374;BME280;43964;53.890;25.340;2023-02-12T23:31:27;1035.3;;;3;60.7
57374;BME280;43964;53.890;25.340;2023-02-12T23:37:03;1035.2;;;3;60.8
57374;BME280;43964;53.890;25.340;2023-02-12T23:41:13;1035.1;;;3;61
57374;BME280;43964;53.890;25.340;2023-02-12T23:46:51;1034.9;;;3.1;61.1
57374;BME280;43964;53.890;25.340;2023-02-12T23:51:37;1034.8;;;3.1;61.2
57374;BME280;43964;53.890;25.340;2023-02-12T23:57:03;1034.7;;;3.1;61.3
